sensor_id;sensor_type;location;lat;lon;timestamp;temperature;humidity
21682;DHT22;11002;48.256;10.084;2023-05-10T00:15:59;13.00;99.90
21682;DHT22;11002;48.256;10.084;2023-05-10T00:18:26;13.00;99.90
21682;DHT22;11002;48.256;10.084;2023-05-10T00:20:53;13.00;99.90
21682;DHT22;11002;48.256;10.084;2023-05-10T00:31:35;13.00;99.90
21682;DHT22;11002;48.256;10.084;2023-05-10T00:34:02;12.90;99.90
21682;DHT22;11002;48.256;10.084;2023-05-10T00:36:29;12.90;99.90
21682;DHT22;11002;48.256;10.084;2023-05-10T00:38:57;12.90;99.90
21682;DHT22;11002;48.256;10.084;2023-05-10T00:41:24;12.90;99.90
21682;DHT22;11002;48.256;10.084;2023-05-10T00:43:51;12.90;99.90
21682;DHT22;11002;48.256;10.084;2023-05-10T00:46:19;12.90;99.90
21682;DHT22;11002;48.256;10.084;2023-05-10T00:48:47;12.90;99.90
21682;DHT22;11002;48.256;10.084;2023-05-10T00:51:15;12.90;99.90
21682;DHT22;11002;48.256;10.084;2023-05-10T00:53:44;12.90;99.90
21682;DHT22;11002;48.256;10.084;2023-05-10T00:56:12;12.90;99.90
21682;DHT22;11002;48.256;10.084;2023-05-10T00:58:40;12.90;99.90
21682;DHT22;11002;48.256;10.084;2023-05-10T01:01:08;12.80;99.90
21682;DHT22;11002;48.256;10.084;2023-05-10T01:03:36;12.80;99.90
21682;DHT22;11002;48.256;10.084;2023-05-10T01:06:06;12.80;99.90
21682;DHT22;11002;48.256;10.084;2023-05-10T01:08:33;12.70;99.90
21682;DHT22;11002;48.256;10.084;2023-05-10T01:11:01;12.80;99.90
21682;DHT22;11002;48.256;10.084;2023-05-10T01:13:32;12.70;99.90
21682;DHT22;11002;48.256;10.084;2023-05-10T01:16:00;12.70;99.90
21682;DHT22;11002;48.256;10.084;2023-05-10T01:18:29;12.80;99.90
21682;DHT22;11002;48.256;10.084;2023-05-10T01:21:07;12.70;99.90
21682;DHT22;11002;48.256;10.084;2023-05-10T01:24:00;12.70;99.90
21682;DHT22;11002;48.256;10.084;2023-05-10T01:30:08;12.60;99.90
21682;DHT22;11002;48.256;10.084;2023-05-10T01:32:48;12.60;99.90
21682;DHT22;11002;48.256;10.084;2023-05-10T01:35:34;12.60;99.90
21682;DHT22;11002;48.256;10.084;2023-05-10T01:38:11;12.60;99.90
21682;DHT22;11002;48.256;10.084;2023-05-10T01:40:46;12.60;99.90
21682;DHT22;11002;48.256;10.084;2023-05-10T01:43:30;12.60;99.90
21682;DHT22;11002;48.256;10.084;2023-05-10T01:46:02;12.60;99.90
21682;DHT22;11002;48.256;10.084;2023-05-10T01:48:39;12.60;99.90
21682;DHT22;11002;48.256;10.084;2023-05-10T01:51:10;12.60;99.90
21682;DHT22;11002;48.256;10.084;2023-05-10T01:53:39;12.60;99.90
21682;DHT22;11002;48.256;10.084;2023-05-10T01:56:07;12.60;99.90
21682;DHT22;11002;48.256;10.084;2023-05-10T01:58:39;12.60;99.90
21682;DHT22;11002;48.256;10.084;2023-05-10T02:01:08;12.60;99.90
21682;DHT22;11002;48.256;10.084;2023-05-10T02:03:38;12.60;99.90
21682;DHT22;11002;48.256;10.084;2023-05-10T02:06:07;12.60;99.90
21682;DHT22;11002;48.256;10.084;2023-05-10T02:08:36;12.60;99.90
21682;DHT22;11002;48.256;10.084;2023-05-10T02:11:04;12.50;99.90
21682;DHT22;11002;48.256;10.084;2023-05-10T02:13:34;12.50;99.90
21682;DHT22;11002;48.256;10.084;2023-05-10T02:16:03;12.40;99.90
21682;DHT22;11002;48.256;10.084;2023-05-10T02:18:33;12.40;99.90
21682;DHT22;11002;48.256;10.084;2023-05-10T02:21:03;12.40;99.90
21682;DHT22;11002;48.256;10.084;2023-05-10T02:23:31;12.50;99.90
21682;DHT22;11002;48.256;10.084;2023-05-10T02:26:00;12.40;99.90
21682;DHT22;11002;48.256;10.084;2023-05-10T02:28:28;12.40;99.90
21682;DHT22;11002;48.256;10.084;2023-05-10T02:30:56;12.30;99.90
21682;DHT22;11002;48.256;10.084;2023-05-10T02:33:24;12.30;99.90
21682;DHT22;11002;48.256;10.084;2023-05-10T02:35:52;12.20;99.90
21682;DHT22;11002;48.256;10.084;2023-05-10T02:38:22;12.10;99.90
21682;DHT22;11002;48.256;10.084;2023-05-10T02:40:51;12.10;99.90
21682;DHT22;11002;48.256;10.084;2023-05-10T02:43:21;12.10;99.90
21682;DHT22;11002;48.256;10.084;2023-05-10T02:45:49;12.10;99.90
21682;DHT22;11002;48.256;10.084;2023-05-10T02:48:17;12.10;99.90
21682;DHT22;11002;48.256;10.084;2023-05-10T02:50:45;12.10;99.90
21682;DHT22;11002;48.256;10.084;2023-05-10T02:53:23;12.10;99.90
21682;DHT22;11002;48.256;10.084;2023-05-10T02:55:52;12.10;99.90
21682;DHT22;11002;48.256;10.084;2023-05-10T02:58:24;12.10;99.90
21682;DHT22;11002;48.256;10.084;2023-05-10T03:00:51;12.10;99.90
21682;DHT22;11002;48.256;10.084;2023-05-10T03:03:19;12.10;99.90
21682;DHT22;11002;48.256;10.084;2023-05-10T03:05:49;12.10;99.90
21682;DHT22;11002;48.256;10.084;2023-05-10T03:08:16;12.10;99.90
21682;DHT22;11002;48.256;10.084;2023-05-10T03:10:54;12.20;99.90
21682;DHT22;11002;48.256;10.084;2023-05-10T03:13:31;12.10;99.90
21682;DHT22;11002;48.256;10.084;2023-05-10T03:16:07;12.10;99.90
21682;DHT22;11002;48.256;10.084;2023-05-10T03:18:42;12.10;99.90
21682;DHT22;11002;48.256;10.084;2023-05-10T03:21:12;12.10;99.90
21682;DHT22;11002;48.256;10.084;2023-05-10T03:23:43;12.00;99.90
21682;DHT22;11002;48.256;10.084;2023-05-10T03:26:18;12.00;99.90
21682;DHT22;11002;48.256;10.084;2023-05-10T03:28:49;12.00;99.90
21682;DHT22;11002;48.256;10.084;2023-05-10T03:31:17;12.00;99.90
21682;DHT22;11002;48.256;10.084;2023-05-10T03:33:48;12.00;99.90
21682;DHT22;11002;48.256;10.084;2023-05-10T03:36:20;12.00;99.90
21682;DHT22;11002;48.256;10.084;2023-05-10T03:38:47;12.00;99.90
21682;DHT22;11002;48.256;10.084;2023-05-10T03:41:16;11.90;99.90
21682;DHT22;11002;48.256;10.084;2023-05-10T03:43:44;11.80;99.90
21682;DHT22;11002;48.256;10.084;2023-05-10T03:46:11;11.80;99.90
21682;DHT22;11002;48.256;10.084;2023-05-10T03:48:38;11.80;99.90
21682;DHT22;11002;48.256;10.084;2023-05-10T03:51:06;11.50;99.90
21682;DHT22;11002;48.256;10.084;2023-05-10T03:53:34;11.70;99.90
21682;DHT22;11002;48.256;10.084;2023-05-10T03:56:01;11.70;99.90
21682;DHT22;11002;48.256;10.084;2023-05-10T03:58:30;11.70;99.90
21682;DHT22;11002;48.256;10.084;2023-05-10T04:00:58;11.80;99.90
21682;DHT22;11002;48.256;10.084;2023-05-10T04:03:25;11.90;99.90
21682;DHT22;11002;48.256;10.084;2023-05-10T04:05:59;11.80;99.90
21682;DHT22;11002;48.256;10.084;2023-05-10T04:08:26;11.70;99.90
21682;DHT22;11002;48.256;10.084;2023-05-10T04:10:54;11.70;99.90
21682;DHT22;11002;48.256;10.084;2023-05-10T04:13:21;11.70;99.90
21682;DHT22;11002;48.256;10.084;2023-05-10T04:15:50;11.70;99.90
21682;DHT22;11002;48.256;10.084;2023-05-10T04:18:17;11.70;99.90
21682;DHT22;11002;48.256;10.084;2023-05-10T04:20:44;11.70;99.90
21682;DHT22;11002;48.256;10.084;2023-05-10T04:23:11;11.70;99.90
21682;DHT22;11002;48.256;10.084;2023-05-10T04:25:40;11.70;99.90
21682;DHT22;11002;48.256;10.084;2023-05-10T04:28:07;11.80;99.90
21682;DHT22;11002;48.256;10.084;2023-05-10T04:30:35;11.80;99.90
21682;DHT22;11002;48.256;10.084;2023-05-10T04:33:03;11.90;99.90
21682;DHT22;11002;48.256;10.084;2023-05-10T04:35:31;11.70;99.90
21682;DHT22;11002;48.256;10.084;2023-05-10T04:37:58;11.70;99.90
21682;DHT22;11002;48.256;10.084;2023-05-10T04:40:26;11.70;99.90
21682;DHT22;11002;48.256;10.084;2023-05-10T04:42:53;11.80;99.90
21682;DHT22;11002;48.256;10.084;2023-05-10T04:45:28;11.80;99.90
21682;DHT22;11002;48.256;10.084;2023-05-10T04:47:55;11.80;99.90
21682;DHT22;11002;48.256;10.084;2023-05-10T04:50:23;11.80;99.90
21682;DHT22;11002;48.256;10.084;2023-05-10T04:52:50;11.80;99.90
21682;DHT22;11002;48.256;10.084;2023-05-10T04:55:17;11.90;99.90
21682;DHT22;11002;48.256;10.084;2023-05-10T04:57:44;11.90;99.90
21682;DHT22;11002;48.256;10.084;2023-05-10T05:00:12;11.90;99.90
21682;DHT22;11002;48.256;10.084;2023-05-10T05:02:43;12.00;99.90
21682;DHT22;11002;48.256;10.084;2023-05-10T05:05:11;12.00;99.90
21682;DHT22;11002;48.256;10.084;2023-05-10T05:07:38;12.00;99.90
21682;DHT22;11002;48.256;10.084;2023-05-10T05:10:07;12.10;99.90
21682;DHT22;11002;48.256;10.084;2023-05-10T05:12:34;12.10;99.90
21682;DHT22;11002;48.256;10.084;2023-05-10T05:15:02;12.20;99.90
21682;DHT22;11002;48.256;10.084;2023-05-10T05:17:30;12.20;99.90
21682;DHT22;11002;48.256;10.084;2023-05-10T05:19:59;12.10;99.90
21682;DHT22;11002;48.256;10.084;2023-05-10T05:22:26;12.10;99.90
21682;DHT22;11002;48.256;10.084;2023-05-10T05:24:54;12.10;99.90
21682;DHT22;11002;48.256;10.084;2023-05-10T05:27:22;12.10;99.90
21682;DHT22;11002;48.256;10.084;2023-05-10T05:29:52;12.10;99.90
21682;DHT22;11002;48.256;10.084;2023-05-10T05:32:19;12.20;99.90
21682;DHT22;11002;48.256;10.084;2023-05-10T05:34:47;12.20;99.90
21682;DHT22;11002;48.256;10.084;2023-05-10T05:37:17;12.30;99.90
21682;DHT22;11002;48.256;10.084;2023-05-10T05:39:45;12.30;99.90
21682;DHT22;11002;48.256;10.084;2023-05-10T05:42:13;12.30;99.90
21682;DHT22;11002;48.256;10.084;2023-05-10T05:44:42;12.40;99.90
21682;DHT22;11002;48.256;10.084;2023-05-10T05:47:09;12.40;99.90
21682;DHT22;11002;48.256;10.084;2023-05-10T05:49:37;12.40;99.90
21682;DHT22;11002;48.256;10.084;2023-05-10T05:52:04;12.50;99.90
21682;DHT22;11002;48.256;10.084;2023-05-10T05:54:33;12.50;99.90
21682;DHT22;11002;48.256;10.084;2023-05-10T05:57:00;12.50;99.90
21682;DHT22;11002;48.256;10.084;2023-05-10T05:59:28;12.50;99.90
21682;DHT22;11002;48.256;10.084;2023-05-10T06:01:55;12.60;99.90
21682;DHT22;11002;48.256;10.084;2023-05-10T06:04:22;12.70;99.90
21682;DHT22;11002;48.256;10.084;2023-05-10T06:06:50;12.70;99.90
21682;DHT22;11002;48.256;10.084;2023-05-10T06:09:17;12.70;99.90
21682;DHT22;11002;48.256;10.084;2023-05-10T06:11:46;12.80;99.90
21682;DHT22;11002;48.256;10.084;2023-05-10T06:14:13;12.80;99.90
21682;DHT22;11002;48.256;10.084;2023-05-10T06:16:40;12.90;99.90
21682;DHT22;11002;48.256;10.084;2023-05-10T06:19:07;13.00;99.90
21682;DHT22;11002;48.256;10.084;2023-05-10T06:21:35;13.10;99.90
21682;DHT22;11002;48.256;10.084;2023-05-10T06:24:02;13.20;98.90
21682;DHT22;11002;48.256;10.084;2023-05-10T06:26:30;13.20;97.40
21682;DHT22;11002;48.256;10.084;2023-05-10T06:28:59;13.20;96.80
21682;DHT22;11002;48.256;10.084;2023-05-10T06:31:27;13.20;95.50
21682;DHT22;11002;48.256;10.084;2023-05-10T06:33:54;13.20;96.30
21682;DHT22;11002;48.256;10.084;2023-05-10T06:36:21;13.30;96.70
21682;DHT22;11002;48.256;10.084;2023-05-10T06:38:50;13.30;95.60
21682;DHT22;11002;48.256;10.084;2023-05-10T06:41:17;13.30;94.80
21682;DHT22;11002;48.256;10.084;2023-05-10T06:43:45;13.40;93.80
21682;DHT22;11002;48.256;10.084;2023-05-10T06:46:13;13.40;93.40
21682;DHT22;11002;48.256;10.084;2023-05-10T06:48:40;13.50;93.60
21682;DHT22;11002;48.256;10.084;2023-05-10T06:51:08;13.40;92.60
21682;DHT22;11002;48.256;10.084;2023-05-10T06:53:35;13.50;93.90
21682;DHT22;11002;48.256;10.084;2023-05-10T06:56:03;13.50;93.00
21682;DHT22;11002;48.256;10.084;2023-05-10T06:58:30;13.60;91.10
21682;DHT22;11002;48.256;10.084;2023-05-10T07:01:02;13.70;91.10
21682;DHT22;11002;48.256;10.084;2023-05-10T07:03:31;13.80;90.30
21682;DHT22;11002;48.256;10.084;2023-05-10T07:06:02;13.80;92.00
21682;DHT22;11002;48.256;10.084;2023-05-10T07:08:30;13.90;91.40
21682;DHT22;11002;48.256;10.084;2023-05-10T07:11:01;13.90;90.90
21682;DHT22;11002;48.256;10.084;2023-05-10T07:13:29;13.90;92.60
21682;DHT22;11002;48.256;10.084;2023-05-10T07:15:57;14.00;91.40
21682;DHT22;11002;48.256;10.084;2023-05-10T07:18:25;14.20;90.60
21682;DHT22;11002;48.256;10.084;2023-05-10T07:20:54;14.30;89.00
21682;DHT22;11002;48.256;10.084;2023-05-10T07:23:21;14.40;91.30
21682;DHT22;11002;48.256;10.084;2023-05-10T07:25:49;14.60;90.70
21682;DHT22;11002;48.256;10.084;2023-05-10T07:28:18;14.60;82.90
21682;DHT22;11002;48.256;10.084;2023-05-10T07:30:45;14.70;83.00
21682;DHT22;11002;48.256;10.084;2023-05-10T07:33:14;14.70;84.20
21682;DHT22;11002;48.256;10.084;2023-05-10T07:35:41;14.80;85.60
21682;DHT22;11002;48.256;10.084;2023-05-10T07:38:10;14.80;84.70
21682;DHT22;11002;48.256;10.084;2023-05-10T07:40:38;14.70;82.90
21682;DHT22;11002;48.256;10.084;2023-05-10T07:43:06;14.80;85.00
21682;DHT22;11002;48.256;10.084;2023-05-10T07:45:33;14.80;76.40
21682;DHT22;11002;48.256;10.084;2023-05-10T07:48:00;14.70;75.60
21682;DHT22;11002;48.256;10.084;2023-05-10T07:50:28;14.70;76.40
21682;DHT22;11002;48.256;10.084;2023-05-10T07:52:55;14.80;78.70
21682;DHT22;11002;48.256;10.084;2023-05-10T07:55:24;14.80;75.80
21682;DHT22;11002;48.256;10.084;2023-05-10T07:57:52;14.80;72.10
21682;DHT22;11002;48.256;10.084;2023-05-10T08:00:20;14.70;69.60
21682;DHT22;11002;48.256;10.084;2023-05-10T08:02:47;14.80;70.60
21682;DHT22;11002;48.256;10.084;2023-05-10T08:05:15;14.80;70.80
21682;DHT22;11002;48.256;10.084;2023-05-10T08:07:42;14.90;70.60
21682;DHT22;11002;48.256;10.084;2023-05-10T08:10:11;15.00;72.30
21682;DHT22;11002;48.256;10.084;2023-05-10T08:12:39;15.10;70.00
21682;DHT22;11002;48.256;10.084;2023-05-10T08:15:08;15.10;68.30
21682;DHT22;11002;48.256;10.084;2023-05-10T08:17:36;15.10;66.60
21682;DHT22;11002;48.256;10.084;2023-05-10T08:20:03;15.20;66.70
21682;DHT22;11002;48.256;10.084;2023-05-10T08:22:31;15.30;63.30
21682;DHT22;11002;48.256;10.084;2023-05-10T08:24:58;15.20;63.30
21682;DHT22;11002;48.256;10.084;2023-05-10T08:27:26;15.10;66.30
21682;DHT22;11002;48.256;10.084;2023-05-10T08:29:54;15.00;64.80
21682;DHT22;11002;48.256;10.084;2023-05-10T08:32:22;15.00;66.50
21682;DHT22;11002;48.256;10.084;2023-05-10T08:34:49;15.20;64.30
21682;DHT22;11002;48.256;10.084;2023-05-10T08:37:16;15.40;70.30
21682;DHT22;11002;48.256;10.084;2023-05-10T08:39:43;15.60;68.00
21682;DHT22;11002;48.256;10.084;2023-05-10T08:42:19;15.70;62.50
21682;DHT22;11002;48.256;10.084;2023-05-10T08:44:48;15.90;62.50
21682;DHT22;11002;48.256;10.084;2023-05-10T08:47:18;16.00;60.60
21682;DHT22;11002;48.256;10.084;2023-05-10T08:49:47;16.00;58.00
21682;DHT22;11002;48.256;10.084;2023-05-10T08:52:17;16.10;59.90
21682;DHT22;11002;48.256;10.084;2023-05-10T08:54:45;16.00;57.40
21682;DHT22;11002;48.256;10.084;2023-05-10T08:57:13;15.90;60.10
21682;DHT22;11002;48.256;10.084;2023-05-10T08:59:40;15.80;58.10
21682;DHT22;11002;48.256;10.084;2023-05-10T09:02:10;15.90;59.50
21682;DHT22;11002;48.256;10.084;2023-05-10T09:04:40;16.10;60.50
21682;DHT22;11002;48.256;10.084;2023-05-10T09:07:07;16.20;58.80
21682;DHT22;11002;48.256;10.084;2023-05-10T09:09:35;16.10;57.50
21682;DHT22;11002;48.256;10.084;2023-05-10T09:12:03;15.90;57.30
21682;DHT22;11002;48.256;10.084;2023-05-10T09:14:33;15.80;57.30
21682;DHT22;11002;48.256;10.084;2023-05-10T09:17:01;15.60;57.70
21682;DHT22;11002;48.256;10.084;2023-05-10T09:19:28;15.60;59.50
21682;DHT22;11002;48.256;10.084;2023-05-10T09:21:57;15.70;61.20
21682;DHT22;11002;48.256;10.084;2023-05-10T09:24:26;15.80;59.70
21682;DHT22;11002;48.256;10.084;2023-05-10T09:26:53;15.90;59.90
21682;DHT22;11002;48.256;10.084;2023-05-10T09:29:23;16.00;59.90
21682;DHT22;11002;48.256;10.084;2023-05-10T09:31:51;16.00;58.20
21682;DHT22;11002;48.256;10.084;2023-05-10T09:34:22;15.90;57.30
21682;DHT22;11002;48.256;10.084;2023-05-10T09:36:57;15.70;57.10
21682;DHT22;11002;48.256;10.084;2023-05-10T09:39:33;15.50;57.00
21682;DHT22;11002;48.256;10.084;2023-05-10T09:42:02;15.50;57.00
21682;DHT22;11002;48.256;10.084;2023-05-10T09:44:31;15.60;57.10
21682;DHT22;11002;48.256;10.084;2023-05-10T09:46:58;15.60;57.10
21682;DHT22;11002;48.256;10.084;2023-05-10T09:49:26;15.60;57.70
21682;DHT22;11002;48.256;10.084;2023-05-10T09:52:05;15.90;57.60
21682;DHT22;11002;48.256;10.084;2023-05-10T09:54:33;16.00;56.20
21682;DHT22;11002;48.256;10.084;2023-05-10T09:57:01;16.10;57.50
21682;DHT22;11002;48.256;10.084;2023-05-10T09:59:29;16.20;55.10
21682;DHT22;11002;48.256;10.084;2023-05-10T10:01:58;16.30;56.60
21682;DHT22;11002;48.256;10.084;2023-05-10T10:04:27;16.60;51.70
21682;DHT22;11002;48.256;10.084;2023-05-10T10:07:03;16.60;51.70
21682;DHT22;11002;48.256;10.084;2023-05-10T10:09:32;16.70;51.70
21682;DHT22;11002;48.256;10.084;2023-05-10T10:12:01;16.80;51.90
21682;DHT22;11002;48.256;10.084;2023-05-10T10:14:28;17.00;51.00
21682;DHT22;11002;48.256;10.084;2023-05-10T10:16:56;17.00;48.40
21682;DHT22;11002;48.256;10.084;2023-05-10T10:19:23;16.90;50.40
21682;DHT22;11002;48.256;10.084;2023-05-10T10:21:50;16.90;50.90
21682;DHT22;11002;48.256;10.084;2023-05-10T10:24:19;16.80;51.80
21682;DHT22;11002;48.256;10.084;2023-05-10T10:26:47;16.90;53.20
21682;DHT22;11002;48.256;10.084;2023-05-10T10:29:21;17.10;49.80
21682;DHT22;11002;48.256;10.084;2023-05-10T10:31:55;17.20;52.20
21682;DHT22;11002;48.256;10.084;2023-05-10T10:34:28;17.30;45.90
21682;DHT22;11002;48.256;10.084;2023-05-10T10:36:57;17.20;47.90
21682;DHT22;11002;48.256;10.084;2023-05-10T10:39:26;17.10;49.70
21682;DHT22;11002;48.256;10.084;2023-05-10T10:41:55;17.10;45.80
21682;DHT22;11002;48.256;10.084;2023-05-10T10:47:23;17.10;46.80
21682;DHT22;11002;48.256;10.084;2023-05-10T10:50:03;17.00;46.30
21682;DHT22;11002;48.256;10.084;2023-05-10T10:52:32;16.70;46.20
21682;DHT22;11002;48.256;10.084;2023-05-10T10:55:03;16.30;49.70
21682;DHT22;11002;48.256;10.084;2023-05-10T10:57:33;16.30;49.70
21682;DHT22;11002;48.256;10.084;2023-05-10T11:00:19;16.30;49.00
21682;DHT22;11002;48.256;10.084;2023-05-10T11:02:48;16.30;51.40
21682;DHT22;11002;48.256;10.084;2023-05-10T11:05:46;16.40;49.80
21682;DHT22;11002;48.256;10.084;2023-05-10T11:08:16;16.50;49.90
21682;DHT22;11002;48.256;10.084;2023-05-10T11:10:53;16.60;48.10
21682;DHT22;11002;48.256;10.084;2023-05-10T11:13:28;16.60;50.50
21682;DHT22;11002;48.256;10.084;2023-05-10T11:15:56;16.40;48.20
21682;DHT22;11002;48.256;10.084;2023-05-10T11:18:26;16.30;52.70
21682;DHT22;11002;48.256;10.084;2023-05-10T11:20:57;16.30;51.80
21682;DHT22;11002;48.256;10.084;2023-05-10T11:23:30;16.20;51.30
21682;DHT22;11002;48.256;10.084;2023-05-10T11:25:59;16.10;50.50
21682;DHT22;11002;48.256;10.084;2023-05-10T11:28:27;15.90;51.00
21682;DHT22;11002;48.256;10.084;2023-05-10T11:30:57;15.60;53.60
21682;DHT22;11002;48.256;10.084;2023-05-10T11:33:24;15.60;54.80
21682;DHT22;11002;48.256;10.084;2023-05-10T11:35:51;15.60;54.20
21682;DHT22;11002;48.256;10.084;2023-05-10T11:38:19;15.60;54.30
21682;DHT22;11002;48.256;10.084;2023-05-10T11:40:46;15.60;54.10
21682;DHT22;11002;48.256;10.084;2023-05-10T11:43:15;15.60;54.40
21682;DHT22;11002;48.256;10.084;2023-05-10T11:45:42;15.70;55.40
21682;DHT22;11002;48.256;10.084;2023-05-10T11:48:09;15.80;53.10
21682;DHT22;11002;48.256;10.084;2023-05-10T11:50:37;15.80;53.70
21682;DHT22;11002;48.256;10.084;2023-05-10T11:53:04;15.80;54.50
21682;DHT22;11002;48.256;10.084;2023-05-10T11:55:33;15.70;55.40
21682;DHT22;11002;48.256;10.084;2023-05-10T11:58:01;15.50;57.00
21682;DHT22;11002;48.256;10.084;2023-05-10T12:00:31;15.40;58.70
21682;DHT22;11002;48.256;10.084;2023-05-10T12:03:00;15.20;60.60
21682;DHT22;11002;48.256;10.084;2023-05-10T12:05:28;15.10;62.50
21682;DHT22;11002;48.256;10.084;2023-05-10T12:08:11;15.10;64.70
21682;DHT22;11002;48.256;10.084;2023-05-10T12:10:38;15.10;61.80
21682;DHT22;11002;48.256;10.084;2023-05-10T12:13:11;15.10;60.80
21682;DHT22;11002;48.256;10.084;2023-05-10T12:15:40;15.20;65.10
21682;DHT22;11002;48.256;10.084;2023-05-10T12:18:08;15.30;62.70
21682;DHT22;11002;48.256;10.084;2023-05-10T12:20:36;15.40;63.20
21682;DHT22;11002;48.256;10.084;2023-05-10T12:23:03;15.40;61.40
21682;DHT22;11002;48.256;10.084;2023-05-10T12:25:32;15.30;60.60
21682;DHT22;11002;48.256;10.084;2023-05-10T12:28:03;15.20;61.80
21682;DHT22;11002;48.256;10.084;2023-05-10T12:30:32;15.20;61.80
21682;DHT22;11002;48.256;10.084;2023-05-10T12:33:01;15.10;66.20
21682;DHT22;11002;48.256;10.084;2023-05-10T12:35:32;15.00;64.40
21682;DHT22;11002;48.256;10.084;2023-05-10T12:38:00;15.00;67.10
21682;DHT22;11002;48.256;10.084;2023-05-10T12:40:27;15.10;67.60
21682;DHT22;11002;48.256;10.084;2023-05-10T12:42:55;15.10;63.70
21682;DHT22;11002;48.256;10.084;2023-05-10T12:45:22;15.10;64.20
21682;DHT22;11002;48.256;10.084;2023-05-10T12:47:50;15.10;65.40
21682;DHT22;11002;48.256;10.084;2023-05-10T12:50:19;15.10;65.20
21682;DHT22;11002;48.256;10.084;2023-05-10T12:52:47;15.10;66.00
21682;DHT22;11002;48.256;10.084;2023-05-10T12:55:14;14.90;68.30
21682;DHT22;11002;48.256;10.084;2023-05-10T12:57:42;14.80;68.70
21682;DHT22;11002;48.256;10.084;2023-05-10T13:00:10;14.90;67.00
21682;DHT22;11002;48.256;10.084;2023-05-10T13:02:37;14.90;65.70
21682;DHT22;11002;48.256;10.084;2023-05-10T13:05:06;15.00;67.10
21682;DHT22;11002;48.256;10.084;2023-05-10T13:07:35;15.00;65.80
21682;DHT22;11002;48.256;10.084;2023-05-10T13:10:03;15.10;64.70
21682;DHT22;11002;48.256;10.084;2023-05-10T13:12:34;15.00;63.00
21682;DHT22;11002;48.256;10.084;2023-05-10T13:15:07;15.10;64.10
21682;DHT22;11002;48.256;10.084;2023-05-10T13:17:35;15.10;62.70
21682;DHT22;11002;48.256;10.084;2023-05-10T13:20:05;15.10;63.10
21682;DHT22;11002;48.256;10.084;2023-05-10T13:22:33;15.00;64.80
21682;DHT22;11002;48.256;10.084;2023-05-10T13:25:02;15.10;63.50
21682;DHT22;11002;48.256;10.084;2023-05-10T13:27:29;15.10;63.10
21682;DHT22;11002;48.256;10.084;2023-05-10T13:29:56;15.10;63.20
21682;DHT22;11002;48.256;10.084;2023-05-10T13:32:25;15.10;61.40
21682;DHT22;11002;48.256;10.084;2023-05-10T13:34:52;15.20;56.70
21682;DHT22;11002;48.256;10.084;2023-05-10T13:37:20;15.20;61.00
21682;DHT22;11002;48.256;10.084;2023-05-10T13:39:47;15.20;61.60
21682;DHT22;11002;48.256;10.084;2023-05-10T13:42:16;15.20;65.00
21682;DHT22;11002;48.256;10.084;2023-05-10T13:44:44;15.30;64.10
21682;DHT22;11002;48.256;10.084;2023-05-10T13:47:11;15.30;63.40
21682;DHT22;11002;48.256;10.084;2023-05-10T13:49:38;15.40;63.20
21682;DHT22;11002;48.256;10.084;2023-05-10T13:52:06;15.40;60.90
21682;DHT22;11002;48.256;10.084;2023-05-10T13:54:33;15.20;64.80
21682;DHT22;11002;48.256;10.084;2023-05-10T13:57:01;14.90;60.00
21682;DHT22;11002;48.256;10.084;2023-05-10T13:59:30;14.30;63.90
21682;DHT22;11002;48.256;10.084;2023-05-10T14:01:58;13.90;67.70
21682;DHT22;11002;48.256;10.084;2023-05-10T14:04:25;13.40;71.10
21682;DHT22;11002;48.256;10.084;2023-05-10T14:07:00;13.20;76.00
21682;DHT22;11002;48.256;10.084;2023-05-10T14:09:27;13.00;81.30
21682;DHT22;11002;48.256;10.084;2023-05-10T14:11:56;12.90;85.80
21682;DHT22;11002;48.256;10.084;2023-05-10T14:14:23;12.90;90.00
21682;DHT22;11002;48.256;10.084;2023-05-10T14:16:52;12.80;89.20
21682;DHT22;11002;48.256;10.084;2023-05-10T14:19:19;12.80;91.10
21682;DHT22;11002;48.256;10.084;2023-05-10T14:21:47;12.90;91.50
21682;DHT22;11002;48.256;10.084;2023-05-10T14:24:14;12.70;87.50
21682;DHT22;11002;48.256;10.084;2023-05-10T14:26:41;12.60;85.90
21682;DHT22;11002;48.256;10.084;2023-05-10T14:29:09;12.50;84.70
21682;DHT22;11002;48.256;10.084;2023-05-10T14:31:36;12.60;90.10
21682;DHT22;11002;48.256;10.084;2023-05-10T14:34:05;12.70;91.70
21682;DHT22;11002;48.256;10.084;2023-05-10T14:36:32;12.90;91.80
21682;DHT22;11002;48.256;10.084;2023-05-10T14:39:00;13.00;87.70
21682;DHT22;11002;48.256;10.084;2023-05-10T14:41:27;13.00;85.50
21682;DHT22;11002;48.256;10.084;2023-05-10T14:43:56;12.90;83.60
21682;DHT22;11002;48.256;10.084;2023-05-10T14:46:23;12.90;83.70
21682;DHT22;11002;48.256;10.084;2023-05-10T14:48:50;13.00;87.10
21682;DHT22;11002;48.256;10.084;2023-05-10T14:51:19;13.10;80.40
21682;DHT22;11002;48.256;10.084;2023-05-10T14:53:47;13.10;83.90
21682;DHT22;11002;48.256;10.084;2023-05-10T14:56:15;13.30;88.00
21682;DHT22;11002;48.256;10.084;2023-05-10T14:58:43;13.40;87.70
21682;DHT22;11002;48.256;10.084;2023-05-10T15:01:10;13.60;87.60
21682;DHT22;11002;48.256;10.084;2023-05-10T15:03:37;13.70;83.50
21682;DHT22;11002;48.256;10.084;2023-05-10T15:06:05;13.60;75.30
21682;DHT22;11002;48.256;10.084;2023-05-10T15:08:34;13.60;76.90
21682;DHT22;11002;48.256;10.084;2023-05-10T15:11:01;13.50;74.10
21682;DHT22;11002;48.256;10.084;2023-05-10T15:13:29;13.50;73.80
21682;DHT22;11002;48.256;10.084;2023-05-10T15:15:56;13.40;72.20
21682;DHT22;11002;48.256;10.084;2023-05-10T15:18:24;13.50;75.10
21682;DHT22;11002;48.256;10.084;2023-05-10T15:20:51;13.60;70.80
21682;DHT22;11002;48.256;10.084;2023-05-10T15:23:18;13.60;72.60
21682;DHT22;11002;48.256;10.084;2023-05-10T15:25:47;13.70;70.40
21682;DHT22;11002;48.256;10.084;2023-05-10T15:28:15;13.70;71.70
21682;DHT22;11002;48.256;10.084;2023-05-10T15:30:42;13.70;68.60
21682;DHT22;11002;48.256;10.084;2023-05-10T15:33:10;13.70;68.70
21682;DHT22;11002;48.256;10.084;2023-05-10T15:35:37;13.70;71.50
21682;DHT22;11002;48.256;10.084;2023-05-10T15:38:05;13.70;71.60
21682;DHT22;11002;48.256;10.084;2023-05-10T15:40:33;13.70;69.80
21682;DHT22;11002;48.256;10.084;2023-05-10T15:43:01;13.60;68.60
21682;DHT22;11002;48.256;10.084;2023-05-10T15:45:29;13.50;70.30
21682;DHT22;11002;48.256;10.084;2023-05-10T15:47:56;13.60;69.60
21682;DHT22;11002;48.256;10.084;2023-05-10T15:50:24;13.60;68.50
21682;DHT22;11002;48.256;10.084;2023-05-10T15:52:52;13.60;65.70
21682;DHT22;11002;48.256;10.084;2023-05-10T15:55:20;13.50;67.60